createdAt,value
2022-08-05T00:02:14.840Z,101436.00
2022-08-05T00:04:37.711Z,101430.41
2022-08-05T00:07:58.709Z,101424.78
2022-08-05T00:09:44.080Z,101417.91
2022-08-05T00:12:06.293Z,101407.88
2022-08-05T00:14:35.300Z,101410.22
2022-08-05T00:16:57.794Z,101411.81
2022-08-05T00:19:19.660Z,101410.56
2022-08-05T00:21:44.006Z,101411.75
2022-08-05T00:24:10.493Z,101410.56
2022-08-05T00:26:33.666Z,101406.97
2022-08-05T00:28:55.473Z,101395.38
2022-08-05T00:31:53.255Z,101400.16
2022-08-05T00:34:55.705Z,101400.53
2022-08-05T00:37:11.128Z,101399.31
2022-08-05T00:39:23.157Z,101404.91
2022-08-05T00:41:55.020Z,101414.88
2022-08-05T00:44:18.450Z,101408.84
2022-08-05T00:46:43.747Z,101409.22
2022-08-05T00:49:05.782Z,101411.22
2022-08-05T00:51:51.473Z,101402.84
2022-08-05T00:54:13.659Z,101396.06
2022-08-05T00:56:35.749Z,101393.28
2022-08-05T00:59:00.194Z,101403.25
2022-08-05T01:01:42.239Z,101394.50
2022-08-05T01:04:13.940Z,101399.69
2022-08-05T01:06:36.393Z,101407.72
2022-08-05T01:09:00.432Z,101398.94
2022-08-05T01:11:37.312Z,101406.91
2022-08-05T01:14:28.222Z,101398.88
2022-08-05T01:17:20.662Z,101401.19
2022-08-05T01:20:02.306Z,101398.34
2022-08-05T01:23:15.000Z,101384.69
2022-08-05T01:26:09.797Z,101400.59
2022-08-05T01:28:52.093Z,101411.69
2022-08-05T01:31:44.868Z,101422.44
2022-08-05T01:34:20.263Z,101428.78
2022-08-05T01:37:24.792Z,101436.34
2022-08-05T01:39:51.282Z,101444.69
2022-08-05T01:42:17.384Z,101447.06
2022-08-05T01:44:40.496Z,101467.81
2022-08-05T01:47:05.134Z,101473.41
2022-08-05T01:50:01.847Z,101468.63
2022-08-05T01:52:17.817Z,101471.00
2022-08-05T01:54:52.811Z,101479.41
2022-08-05T01:58:11.776Z,101475.81
2022-08-05T02:00:12.302Z,101453.44
2022-08-05T02:02:46.408Z,101452.69
2022-08-05T02:05:18.210Z,101464.69
2022-08-05T02:07:56.226Z,101477.81
2022-08-05T02:10:28.095Z,101481.81
2022-08-05T02:13:01.428Z,101487.41
2022-08-05T02:15:34.628Z,101481.81
2022-08-05T02:18:32.692Z,101483.06
2022-08-05T02:21:13.236Z,101461.06
2022-08-05T02:23:41.569Z,101463.47
2022-08-05T02:26:07.975Z,101444.25
2022-08-05T02:28:44.588Z,101449.84
2022-08-05T02:31:16.956Z,101427.47
2022-08-05T02:34:13.694Z,101427.41
2022-08-05T02:36:42.669Z,101443.31
2022-08-05T02:39:09.394Z,101452.09
2022-08-05T02:41:36.156Z,101460.81
2022-08-05T02:44:06.042Z,101469.56
2022-08-05T02:46:36.372Z,101453.56
2022-08-05T02:49:17.760Z,101441.16
2022-08-05T02:52:03.590Z,101433.19
2022-08-05T02:54:34.857Z,101443.16
2022-08-05T02:57:00.822Z,101467.13
2022-08-05T02:59:26.912Z,101481.09
2022-08-05T03:01:52.280Z,101480.28
2022-08-05T03:04:15.188Z,101472.28
2022-08-05T03:06:55.958Z,101471.03
2022-08-05T03:09:36.549Z,101463.47
2022-08-05T03:12:00.170Z,101452.69
2022-08-05T03:14:23.852Z,101438.25
2022-08-05T03:16:47.986Z,101415.81
2022-08-05T03:19:16.829Z,101418.19
2022-08-05T03:21:41.410Z,101416.97
2022-08-05T03:24:11.226Z,101400.97
2022-08-05T03:26:36.123Z,101406.50
2022-08-05T03:28:58.385Z,101410.88
2022-08-05T03:31:56.070Z,101412.03
2022-08-05T03:34:03.774Z,101428.34
2022-08-05T03:36:30.126Z,101428.34
2022-08-05T03:38:53.406Z,101433.53
2022-08-05T03:41:16.626Z,101430.72
2022-08-05T03:44:09.121Z,101434.69
2022-08-05T03:46:29.684Z,101443.88
2022-08-05T03:48:51.932Z,101431.09
2022-08-05T03:52:49.028Z,101439.84
2022-08-05T03:55:50.144Z,101444.25
2022-08-05T03:57:16.499Z,101443.03
2022-08-05T03:59:55.012Z,101448.22
2022-08-05T04:02:37.422Z,101449.41
2022-08-05T04:05:04.012Z,101446.19
2022-08-05T04:07:33.054Z,101458.94
2022-08-05T04:09:56.612Z,101457.03
2022-08-05T04:12:24.838Z,101457.91
2022-08-05T04:14:47.594Z,101459.88
2022-08-05T04:17:12.228Z,101469.88
2022-08-05T04:19:46.795Z,101462.78
2022-08-05T04:22:20.478Z,101438.91
2022-08-05T04:24:52.567Z,101430.81
2022-08-05T04:27:15.632Z,101435.56
2022-08-05T04:29:37.504Z,101448.28
2022-08-05T04:31:59.564Z,101445.84
2022-08-05T04:34:33.091Z,101459.03
2022-08-05T04:36:56.487Z,101468.19
2022-08-05T04:39:19.853Z,101474.22
2022-08-05T04:41:41.786Z,101480.66
2022-08-05T04:44:09.030Z,101489.88
2022-08-05T04:46:31.942Z,101485.53
2022-08-05T04:48:53.764Z,101495.97
2022-08-05T04:51:17.542Z,101482.38
2022-08-05T04:53:40.405Z,101472.69
2022-08-05T04:56:33.408Z,101472.63
2022-08-05T04:58:45.425Z,101476.13
2022-08-05T05:01:07.851Z,101481.72
2022-08-05T05:03:32.515Z,101492.88
2022-08-05T05:06:36.133Z,101481.72
2022-08-05T05:08:45.940Z,101478.50
2022-08-05T05:11:11.990Z,101472.47
2022-08-05T05:13:43.191Z,101472.84
2022-08-05T05:16:06.050Z,101483.63
2022-08-05T05:18:33.334Z,101479.69
2022-08-05T05:20:55.884Z,101476.09
2022-08-05T05:23:20.302Z,101472.47
2022-08-05T05:25:44.662Z,101470.84
2022-08-05T05:28:11.978Z,101471.75
2022-08-05T05:30:34.050Z,101464.25
2022-08-05T05:32:56.583Z,101464.28
2022-08-05T05:35:19.231Z,101462.34
2022-08-05T05:38:00.245Z,101469.19
2022-08-05T05:40:26.175Z,101487.22
2022-08-05T05:42:51.272Z,101490.44
2022-08-05T05:45:14.259Z,101488.44
2022-08-05T05:48:06.480Z,101495.66
2022-08-05T05:50:19.912Z,101491.25
2022-08-05T05:52:43.254Z,101505.63
2022-08-05T05:55:13.684Z,101492.06
2022-08-05T05:57:42.705Z,101492.47
2022-08-05T06:00:21.556Z,101492.88
2022-08-05T06:02:53.470Z,101494.41
2022-08-05T06:05:17.216Z,101495.97
2022-08-05T06:07:41.570Z,101495.91
2022-08-05T06:10:10.476Z,101494.66
2022-08-05T06:12:33.711Z,101494.63
2022-08-05T06:15:07.995Z,101503.41
2022-08-05T06:17:30.853Z,101505.41
2022-08-05T06:19:57.231Z,101508.19
2022-08-05T06:22:33.785Z,101514.28
2022-08-05T06:24:56.161Z,101512.34
2022-08-05T06:28:12.791Z,101517.59
2022-08-05T06:30:02.678Z,101520.06
2022-08-05T06:32:29.640Z,101517.72
2022-08-05T06:34:53.543Z,101525.66
2022-08-05T06:37:18.216Z,101528.06
2022-08-05T06:39:59.974Z,101531.25
2022-08-05T06:42:24.474Z,101532.88
2022-08-05T06:44:49.181Z,101535.28
2022-08-05T06:48:11.571Z,101533.31
2022-08-05T06:50:00.025Z,101530.97
2022-08-05T06:52:36.578Z,101529.41
2022-08-05T06:55:00.461Z,101518.63
2022-08-05T06:58:03.961Z,101532.66
2022-08-05T07:00:07.652Z,101535.50
2022-08-05T07:02:31.768Z,101546.31
2022-08-05T07:04:53.577Z,101552.78
2022-08-05T07:07:15.642Z,101549.59
2022-08-05T07:09:46.366Z,101549.22
2022-08-05T07:12:35.952Z,101555.25
2022-08-05T07:15:34.611Z,101557.28
2022-08-05T07:18:08.145Z,101553.72
2022-08-05T07:20:33.759Z,101562.97
2022-08-05T07:22:56.176Z,101565.00
2022-08-05T07:25:54.969Z,101567.47
2022-08-05T07:28:04.164Z,101564.78
2022-08-05T07:30:38.344Z,101575.66
2022-08-05T07:33:09.634Z,101578.97
2022-08-05T07:36:05.057Z,101577.81
2022-08-05T07:38:32.321Z,101576.66
2022-08-05T07:41:00.418Z,101588.78
2022-08-05T07:43:26.693Z,101588.81
2022-08-05T07:45:56.547Z,101586.88
2022-08-05T07:49:04.225Z,101583.31
2022-08-05T07:51:01.653Z,101583.41
2022-08-05T07:53:23.542Z,101586.72
2022-08-05T07:56:15.731Z,101591.97
2022-08-05T07:58:57.403Z,101593.97
2022-08-05T08:01:22.275Z,101593.19
2022-08-05T08:03:45.076Z,101590.81
2022-08-05T08:06:07.458Z,101602.03
2022-08-05T08:08:32.106Z,101604.81
2022-08-05T08:10:55.643Z,101606.84
2022-08-05T08:13:22.154Z,101612.91
2022-08-05T08:16:35.348Z,101610.16
2022-08-05T08:18:33.681Z,101612.19
2022-08-05T08:21:02.802Z,101611.81
2022-08-05T08:24:03.271Z,101609.81
2022-08-05T08:26:07.736Z,101619.88
2022-08-05T08:28:36.587Z,101624.75
2022-08-05T08:31:15.041Z,101628.03
2022-08-05T08:33:39.295Z,101629.34
2022-08-05T08:36:29.698Z,101631.38
2022-08-05T08:38:42.973Z,101631.38
2022-08-05T08:41:16.670Z,101637.53
2022-08-05T08:45:19.920Z,101646.16
2022-08-05T08:46:27.499Z,101651.53
2022-08-05T08:49:06.064Z,101658.47
2022-08-05T08:52:04.106Z,101660.53
2022-08-05T08:54:21.327Z,101655.88
2022-08-05T08:56:49.690Z,101665.19
2022-08-05T08:59:14.841Z,101672.84
2022-08-05T09:01:43.076Z,101668.03
2022-08-05T09:04:19.297Z,101663.56
2022-08-05T09:06:41.657Z,101675.97
2022-08-05T09:09:03.644Z,101672.34
2022-08-05T09:11:51.783Z,101674.78
2022-08-05T09:14:56.649Z,101680.09
2022-08-05T09:16:55.066Z,101688.72
2022-08-05T09:19:17.602Z,101677.56
2022-08-05T09:22:23.342Z,101690.44
2022-08-05T09:24:28.413Z,101689.28
2022-08-05T09:26:58.689Z,101688.09
2022-08-05T09:29:20.667Z,101695.66
2022-08-05T09:32:40.632Z,101695.66
2022-08-05T09:34:56.262Z,101690.47
2022-08-05T09:38:12.093Z,101696.91
2022-08-05T09:40:07.352Z,101700.16
2022-08-05T09:42:41.730Z,101694.94
2022-08-05T09:45:17.754Z,101708.16
2022-08-05T09:47:56.029Z,101716.88
2022-08-05T09:50:37.813Z,101711.19
2022-08-05T09:53:02.475Z,101713.44
2022-08-05T09:55:56.715Z,101714.19
2022-08-05T09:58:15.334Z,101712.50
2022-08-05T10:00:37.277Z,101718.06
2022-08-05T10:03:10.694Z,101727.66
2022-08-05T10:05:33.563Z,101722.03
2022-08-05T10:08:36.876Z,101735.66
2022-08-05T10:10:54.318Z,101736.88
2022-08-05T10:13:44.199Z,101738.09
2022-08-05T10:16:41.773Z,101728.50
2022-08-05T10:19:16.382Z,101728.69
2022-08-05T10:21:46.720Z,101726.41
2022-08-05T10:24:13.355Z,101737.41
2022-08-05T10:26:36.726Z,101734.25
2022-08-05T10:29:11.128Z,101739.50
2022-08-05T10:32:53.997Z,101741.59
2022-08-05T10:34:16.961Z,101725.94
2022-08-05T10:36:42.037Z,101734.41
2022-08-05T10:39:25.072Z,101745.25
2022-08-05T10:42:13.568Z,101742.84
2022-08-05T10:44:36.899Z,101737.22
2022-08-05T10:47:26.596Z,101741.22
2022-08-05T10:50:32.977Z,101742.03
2022-08-05T10:52:58.504Z,101740.41
2022-08-05T10:55:20.900Z,101747.66
2022-08-05T10:57:44.824Z,101755.34
2022-08-05T11:00:20.506Z,101750.53
2022-08-05T11:03:25.890Z,101744.06
2022-08-05T11:06:14.967Z,101747.25
2022-08-05T11:08:39.490Z,101750.44
2022-08-05T11:11:44.288Z,101757.28
2022-08-05T11:14:08.159Z,101754.47
2022-08-05T11:16:33.776Z,101760.47
2022-08-05T11:20:11.121Z,101764.06
2022-08-05T11:22:43.011Z,101764.78
2022-08-05T11:26:05.069Z,101763.09
2022-08-05T11:28:25.969Z,101759.44
2022-08-05T11:31:06.113Z,101761.38
2022-08-05T11:33:46.103Z,101774.69
2022-08-05T11:36:11.867Z,101763.41
2022-08-05T11:38:45.929Z,101775.88
2022-08-05T11:41:54.469Z,101775.44
2022-08-05T11:44:08.349Z,101778.63
2022-08-05T11:47:10.181Z,101777.91
2022-08-05T11:49:33.964Z,101784.06
2022-08-05T11:51:57.513Z,101785.31
2022-08-05T11:54:34.555Z,101797.03
2022-08-05T11:56:57.896Z,101793.03
2022-08-05T11:59:27.353Z,101801.94
2022-08-05T12:02:03.044Z,101793.47
2022-08-05T12:04:37.217Z,101800.72
2022-08-05T12:07:08.147Z,101803.94
2022-08-05T12:09:52.873Z,101793.06
2022-08-05T12:12:23.630Z,101812.28
2022-08-05T12:14:47.826Z,101814.25
2022-08-05T12:18:03.581Z,101814.66
2022-08-05T12:20:16.660Z,101825.56
2022-08-05T12:22:40.178Z,101833.28
2022-08-05T12:25:08.792Z,101840.59
2022-08-05T12:27:36.390Z,101842.97
2022-08-05T12:30:15.586Z,101856.69
2022-08-05T12:32:50.716Z,101865.94
2022-08-05T12:35:21.505Z,101857.47
2022-08-05T12:37:47.091Z,101862.72
2022-08-05T12:40:20.758Z,101865.91
2022-08-05T12:42:50.876Z,101857.88
2022-08-05T12:45:13.756Z,101859.50
2022-08-05T12:47:43.516Z,101864.31
2022-08-05T12:50:24.061Z,101870.38
2022-08-05T12:52:59.890Z,101862.72
2022-08-05T12:55:26.465Z,101873.56
2022-08-05T12:58:49.251Z,101877.16
2022-08-05T13:02:00.105Z,101884.41
2022-08-05T13:03:14.289Z,101880.38
2022-08-05T13:05:37.760Z,101893.31
2022-08-05T13:08:01.016Z,101898.16
2022-08-05T13:10:24.213Z,101902.16
2022-08-05T13:12:57.147Z,101902.97
2022-08-05T13:15:24.458Z,101901.31
2022-08-05T13:17:59.350Z,101902.50
2022-08-05T13:20:24.169Z,101906.56
2022-08-05T13:22:53.416Z,101906.56
2022-08-05T13:25:19.313Z,101915.03
2022-08-05T13:27:49.486Z,101906.16
2022-08-05T13:30:35.833Z,101912.22
2022-08-05T13:33:01.162Z,101915.03
2022-08-05T13:35:31.294Z,101915.03
2022-08-05T13:38:04.862Z,101910.59
2022-08-05T13:40:51.425Z,101920.66
2022-08-05T13:44:45.303Z,101916.25
2022-08-05T13:47:08.453Z,101919.44
2022-08-05T13:49:31.034Z,101931.53
2022-08-05T13:51:57.340Z,101921.84
2022-08-05T13:54:24.746Z,101914.97
2022-08-05T13:56:50.971Z,101929.88
2022-08-05T13:59:19.726Z,101930.28
2022-08-05T14:01:46.664Z,101925.88
2022-08-05T14:04:39.545Z,101932.72
2022-08-05T14:07:25.116Z,101929.47
2022-08-05T14:09:46.423Z,101924.63
2022-08-05T14:12:18.159Z,101926.19
2022-08-05T14:14:51.659Z,101926.97
2022-08-05T14:17:17.650Z,101930.13
2022-08-05T14:19:55.983Z,101936.94
2022-08-05T14:22:23.892Z,101939.31
2022-08-05T14:24:52.722Z,101948.94
2022-08-05T14:27:18.536Z,101956.25
2022-08-05T14:29:40.793Z,101963.13
2022-08-05T14:32:13.134Z,101954.72
2022-08-05T14:34:39.101Z,101964.41
2022-08-05T14:37:02.920Z,101973.75
2022-08-05T14:39:25.541Z,101961.69
2022-08-05T14:42:15.900Z,101968.94
2022-08-05T14:44:31.145Z,101973.00
2022-08-05T14:46:53.082Z,101974.97
2022-08-05T14:49:18.084Z,101966.94
2022-08-05T14:51:42.862Z,101967.75
2022-08-05T14:54:27.918Z,101981.81
2022-08-05T14:56:49.578Z,101981.00
2022-08-05T14:59:14.408Z,101977.81
2022-08-05T15:01:48.463Z,101983.44
2022-08-05T15:04:11.872Z,101976.59
2022-08-05T15:06:33.954Z,101975.44
2022-08-05T15:08:59.145Z,101970.19
2022-08-05T15:11:52.706Z,101973.41
2022-08-05T15:14:07.051Z,101980.59
2022-08-05T15:16:29.326Z,101980.97
2022-08-05T15:18:51.334Z,101973.75
2022-08-05T15:21:14.554Z,101989.03
2022-08-05T15:23:42.690Z,101985.00
2022-08-05T15:26:04.619Z,101992.25
2022-08-05T15:28:27.616Z,101994.69
2022-08-05T15:30:53.157Z,101997.88
2022-08-05T15:33:56.734Z,101992.19
2022-08-05T15:35:57.522Z,101996.16
2022-08-05T15:38:33.811Z,101996.09
2022-08-05T15:41:23.553Z,102000.44
2022-08-05T15:43:45.741Z,102003.19
2022-08-05T15:46:08.892Z,102001.94
2022-08-05T15:48:31.342Z,101993.91
2022-08-05T15:50:53.166Z,102005.56
2022-08-05T15:53:18.230Z,102002.34
2022-08-05T15:56:02.634Z,101997.63
2022-08-05T15:58:25.854Z,101999.19
2022-08-05T16:00:50.921Z,101996.00
2022-08-05T16:03:27.304Z,102002.47
2022-08-05T16:05:52.742Z,101999.19
2022-08-05T16:08:17.796Z,102008.84
2022-08-05T16:10:44.176Z,102014.44
2022-08-05T16:13:07.826Z,102015.97
2022-08-05T16:15:32.771Z,102011.47
2022-08-05T16:17:57.844Z,102010.69
2022-08-05T16:20:20.190Z,102012.31
2022-08-05T16:22:42.042Z,102015.59
2022-08-05T16:25:09.845Z,102016.03
2022-08-05T16:28:00.745Z,102019.63
2022-08-05T16:30:23.555Z,102028.13
2022-08-05T16:32:48.692Z,102021.69
2022-08-05T16:35:11.479Z,102029.28
2022-08-05T16:38:16.828Z,102021.66
2022-08-05T16:40:26.651Z,102032.09
2022-08-05T16:42:50.952Z,102032.94
2022-08-05T16:46:04.850Z,102036.59
2022-08-05T16:47:57.477Z,102038.56
2022-08-05T16:50:22.950Z,102049.81
2022-08-05T16:52:46.185Z,102043.81
2022-08-05T16:55:08.546Z,102049.41
2022-08-05T16:57:53.404Z,102058.22
2022-08-05T17:00:14.153Z,102056.50
2022-08-05T17:02:50.168Z,102066.91
2022-08-05T17:05:13.274Z,102064.03
2022-08-05T17:07:43.701Z,102068.00
2022-08-05T17:10:16.646Z,102069.56
2022-08-05T17:12:51.145Z,102070.00
2022-08-05T17:15:15.706Z,102078.25
2022-08-05T17:18:02.232Z,102085.31
2022-08-05T17:20:25.075Z,102091.13
2022-08-05T17:22:55.147Z,102078.34
2022-08-05T17:25:33.691Z,102094.16
2022-08-05T17:27:59.980Z,102096.31
2022-08-05T17:30:28.449Z,102101.03
2022-08-05T17:32:51.048Z,102100.81
2022-08-05T17:35:15.731Z,102105.84
2022-08-05T17:37:45.087Z,102110.88
2022-08-05T17:40:14.942Z,102118.44
2022-08-05T17:42:38.093Z,102120.38
2022-08-05T17:45:09.770Z,102118.16
2022-08-05T17:47:40.282Z,102122.44
2022-08-05T17:50:10.183Z,102126.25
2022-08-05T17:52:34.007Z,102134.00
2022-08-05T17:54:55.876Z,102138.16
2022-08-05T17:57:17.864Z,102151.06
2022-08-05T17:59:41.193Z,102146.31
2022-08-05T18:02:10.788Z,102140.03
2022-08-05T18:04:32.947Z,102147.75
2022-08-05T18:07:00.342Z,102153.09
2022-08-05T18:09:22.990Z,102156.84
2022-08-05T18:12:05.488Z,102159.84
2022-08-05T18:14:27.359Z,102155.56
2022-08-05T18:16:52.054Z,102164.91
2022-08-05T18:19:15.540Z,102163.06
2022-08-05T18:22:09.645Z,102165.69
2022-08-05T18:24:19.564Z,102174.78
2022-08-05T18:26:43.857Z,102179.00
2022-08-05T18:29:05.852Z,102183.53
2022-08-05T18:31:35.367Z,102181.78
2022-08-05T18:33:57.742Z,102188.03
2022-08-05T18:36:19.912Z,102188.97
2022-08-05T18:38:49.932Z,102198.25
2022-08-05T18:41:58.227Z,102202.25
2022-08-05T18:43:53.852Z,102209.69
2022-08-05T18:46:20.017Z,102203.34
2022-08-05T18:48:42.365Z,102204.88
2022-08-05T18:52:05.024Z,102206.84
2022-08-05T18:54:05.616Z,102218.72
2022-08-05T18:56:27.519Z,102215.94
2022-08-05T18:58:53.543Z,102222.78
2022-08-05T19:01:47.314Z,102228.34
2022-08-05T19:04:05.606Z,102226.97
2022-08-05T19:06:37.190Z,102224.22
2022-08-05T19:09:06.371Z,102231.94
2022-08-05T19:11:56.736Z,102232.47
2022-08-05T19:14:44.736Z,102234.91
2022-08-05T19:16:52.956Z,102234.53
2022-08-05T19:19:15.406Z,102245.53
2022-08-05T19:21:42.856Z,102250.94
2022-08-05T19:24:12.339Z,102252.63
2022-08-05T19:26:43.922Z,102262.72
2022-08-05T19:29:16.980Z,102263.19
2022-08-05T19:31:44.742Z,102270.56
2022-08-05T19:34:12.847Z,102270.75
2022-08-05T19:36:40.612Z,102283.28
2022-08-05T19:39:04.592Z,102273.97
2022-08-05T19:41:58.410Z,102271.44
2022-08-05T19:44:13.632Z,102284.84
2022-08-05T19:46:37.831Z,102286.72
2022-08-05T19:49:04.128Z,102286.16
2022-08-05T19:52:04.246Z,102297.22
2022-08-05T19:54:21.894Z,102306.19
2022-08-05T19:56:52.305Z,102305.50
2022-08-05T19:59:51.150Z,102307.72
2022-08-05T20:01:57.027Z,102309.09
2022-08-05T20:04:18.919Z,102315.03
2022-08-05T20:06:45.964Z,102307.00
2022-08-05T20:09:13.858Z,102314.44
2022-08-05T20:11:37.775Z,102314.69
2022-08-05T20:14:12.370Z,102317.72
2022-08-05T20:16:34.872Z,102315.16
2022-08-05T20:18:57.673Z,102330.28
2022-08-05T20:21:22.920Z,102327.34
2022-08-05T20:23:50.908Z,102332.34
2022-08-05T20:26:16.485Z,102330.25
2022-08-05T20:28:39.437Z,102333.38
2022-08-05T20:31:02.348Z,102335.66
2022-08-05T20:33:24.217Z,102343.44
2022-08-05T20:35:46.469Z,102346.00
2022-08-05T20:38:09.229Z,102348.53
2022-08-05T20:40:36.786Z,102349.09
2022-08-05T20:43:00.153Z,102359.31
2022-08-05T20:45:22.286Z,102357.56
2022-08-05T20:48:04.574Z,102353.66
2022-08-05T20:50:26.418Z,102353.06
2022-08-05T20:52:49.108Z,102353.28
2022-08-05T20:55:55.402Z,102356.78
2022-08-05T20:57:57.135Z,102357.78
2022-08-05T21:00:40.789Z,102362.41
2022-08-05T21:03:06.767Z,102371.78
2022-08-05T21:05:48.066Z,102374.44
2022-08-05T21:08:11.308Z,102367.72
2022-08-05T21:10:33.968Z,102378.50
2022-08-05T21:13:08.812Z,102375.72
2022-08-05T21:15:36.748Z,102378.38
2022-08-05T21:17:58.811Z,102379.06
2022-08-05T21:20:33.393Z,102378.56
2022-08-05T21:22:55.465Z,102375.19
2022-08-05T21:25:17.273Z,102383.75
2022-08-05T21:27:39.706Z,102382.78
2022-08-05T21:30:10.087Z,102385.44
2022-08-05T21:32:39.591Z,102380.84
2022-08-05T21:35:08.696Z,102380.69
2022-08-05T21:37:41.188Z,102386.47
2022-08-05T21:40:06.146Z,102391.59
2022-08-05T21:42:43.889Z,102391.44
2022-08-05T21:45:10.770Z,102395.38
2022-08-05T21:47:56.038Z,102397.31
2022-08-05T21:50:16.368Z,102397.66
2022-08-05T21:52:38.218Z,102399.16
2022-08-05T21:55:09.516Z,102399.00
2022-08-05T21:57:32.675Z,102405.25
2022-08-05T22:00:06.083Z,102406.72
2022-08-05T22:02:34.602Z,102405.75
2022-08-05T22:04:58.347Z,102411.31
2022-08-05T22:07:20.586Z,102413.16
2022-08-05T22:10:01.656Z,102414.97
2022-08-05T22:12:26.397Z,102421.88
2022-08-05T22:14:48.535Z,102414.88
2022-08-05T22:17:10.388Z,102417.16
2022-08-05T22:20:02.125Z,102416.19
2022-08-05T22:22:15.943Z,102419.16
2022-08-05T22:24:56.221Z,102425.38
2022-08-05T22:28:05.061Z,102424.41
2022-08-05T22:30:18.460Z,102422.16
2022-08-05T22:32:43.107Z,102436.69
2022-08-05T22:35:09.379Z,102435.41
2022-08-05T22:37:57.958Z,102428.91
2022-08-05T22:40:16.626Z,102436.25
2022-08-05T22:42:41.234Z,102441.97
2022-08-05T22:45:08.606Z,102441.81
2022-08-05T22:47:32.431Z,102443.63
2022-08-05T22:50:22.981Z,102441.47
2022-08-05T22:52:41.857Z,102441.31
2022-08-05T22:55:19.057Z,102440.34
2022-08-05T22:57:42.041Z,102451.31
2022-08-05T23:00:09.794Z,102449.50
2022-08-05T23:02:32.208Z,102451.28
2022-08-05T23:04:55.114Z,102457.34
2022-08-05T23:07:17.029Z,102450.31
2022-08-05T23:09:53.233Z,102452.44
2022-08-05T23:12:24.024Z,102452.13
2022-08-05T23:14:46.572Z,102460.63
2022-08-05T23:17:24.459Z,102466.63
2022-08-05T23:19:57.911Z,102468.56
2022-08-05T23:22:20.860Z,102468.56
2022-08-05T23:24:51.052Z,102468.53
2022-08-05T23:27:13.931Z,102471.78
2022-08-05T23:29:37.068Z,102472.75
2022-08-05T23:31:58.893Z,102479.25
2022-08-05T23:34:24.503Z,102479.09
2022-08-05T23:36:46.786Z,102482.00
2022-08-05T23:39:09.124Z,102477.59
2022-08-05T23:41:34.186Z,102486.56
2022-08-05T23:44:05.978Z,102483.59
2022-08-05T23:46:28.512Z,102488.63
2022-08-05T23:49:00.440Z,102492.06
2022-08-05T23:51:23.873Z,102494.31
2022-08-05T23:53:47.180Z,102493.81
2022-08-05T23:56:09.043Z,102488.91
2022-08-05T23:58:32.681Z,102498.34
